Oak Grove, Minnesota
Current Conditions -  °F | °C
As of 6:54 AM on Wednesday 22 Oct 2014 (Local Time) from KANE Reporting Station
Clear Clear  
Wind Chill: 37°   Ceiling: Unl
Heat Index: 43°   Visibility: 10mi
Dew Point: 39°   Wind: 10mph
Humidity: 87%   Direction: 140°SE
Pressure: 30.2"   Gusts: 18mph
Location:  45.2924°N, 93.4325°W
Report Text: KANE 221154Z AUTO 14009G16KT 10SM CLR 06/04 A3020 RMK AO2
Loading
Personal Weather Stations






























Interactive Weather Map
Tropical Storm Tracking
New forecast layout! Learn more

10-Day Weather Forecast

Advertisements
Track Severe Weather on mobile